Terminal Aerodrome Forecast
Issued by NWS Springfield, MO

Home | Current Version | Previous Version | Text Only | Print | Product List | Glossary On
Versions: 1 2 3 4 5 6 7 8 9 10 11 12 13 14 15 16 17 18 19 20 21 22 23 24 25 26 27 28 29 30 31
000
FTUS43 KSGF 281120
TAFSGF
TAF
KSGF 281120Z 2812/2912 04006KT P6SM OVC010
      TEMPO 2812/2814 6SM BR BKN007
     FM281400 08007KT P6SM OVC015
     FM281800 10009KT P6SM BKN025
     FM290600 12015G24KT P6SM OVC015 PROB30 2908/2912 5SM -TSRA
      BKN008CB=

USA.gov is the U.S. government's official web portal to all federal, state and local government web resources and services.